Time;durP1;ratioP1;P1;durP2;ratioP2;P2;SDS_P1;SDS_P2;PMS_P1;PMS_P2;Temp;Humidity;BMP_temperature;BMP_pressure;BME280_temperature;BME280_humidity;BME280_pressure;Samples;Min_cycle;Max_cycle;Signal;HPM_P1;HPM_P2
2023/11/14 00:00:14;;;;;;;91.97;44.83;;;;;;;;;;6278585;28;20056;-84
2023/11/14 00:03:16;;;;;;;49.83;27.92;;;;;;;;;;6309480;28;20064;-84
2023/11/14 00:06:20;;;;;;;25.80;18.02;;;;;;;;;;6303493;28;20048;-84
2023/11/14 00:09:24;;;;;;;22.42;15.98;;;;;;;;;;6304423;28;20104;-84
2023/11/14 00:12:27;;;;;;;26.00;16.77;;;;;;;;;;6305173;28;20044;-84
2023/11/14 00:15:31;;;;;;;25.30;16.42;;;;;;;;;;6309470;28;20111;-84
2023/11/14 00:18:34;;;;;;;24.38;16.85;;;;;;;;;;6310884;28;20075;-84
2023/11/14 00:21:37;;;;;;;26.98;17.40;;;;;;;;;;6309987;28;20091;-84
2023/11/14 00:24:39;;;;;;;26.70;17.20;;;;;;;;;;6310624;28;20047;-84
2023/11/14 00:27:41;;;;;;;22.55;16.15;;;;;;;;;;6311005;28;20071;-85
2023/11/14 00:30:43;;;;;;;25.27;16.55;;;;;;;;;;6305711;28;20253;-83
2023/11/14 00:33:45;;;;;;;26.77;16.52;;;;;;;;;;6305257;28;20218;-84
2023/11/14 00:36:50;;;;;;;21.75;15.77;;;;;;;;;;6313237;28;20052;-84
2023/11/14 00:39:52;;;;;;;24.77;17.25;;;;;;;;;;6307730;28;20056;-85
2023/11/14 00:42:54;;;;;;;25.52;16.88;;;;;;;;;;6304365;28;20122;-85
2023/11/14 00:45:56;;;;;;;24.65;15.35;;;;;;;;;;6309526;28;20044;-84
2023/11/14 00:48:58;;;;;;;23.25;16.33;;;;;;;;;;6307789;28;20049;-86
2023/11/14 00:52:01;;;;;;;28.50;17.65;;;;;;;;;;6307417;28;20245;-84
2023/11/14 00:55:04;;;;;;;25.08;16.70;;;;;;;;;;6308184;28;20154;-84
2023/11/14 00:58:06;;;;;;;26.73;17.73;;;;;;;;;;6312283;28;20044;-84
2023/11/14 01:01:08;;;;;;;26.52;17.20;;;;;;;;;;6307814;28;20055;-85
2023/11/14 01:04:12;;;;;;;26.10;16.27;;;;;;;;;;6307615;28;20120;-83
2023/11/14 01:07:32;;;;;;;24.50;16.75;;;;;;;;;;6301947;28;20267;-83
2023/11/14 01:10:34;;;;;;;22.50;15.55;;;;;;;;;;6305980;28;20067;-84
2023/11/14 01:13:36;;;;;;;23.92;16.35;;;;;;;;;;6304202;28;20095;-84
2023/11/14 01:16:38;;;;;;;26.05;16.55;;;;;;;;;;6308597;28;20061;-85
2023/11/14 01:19:40;;;;;;;22.20;16.30;;;;;;;;;;6309342;28;20107;-84
2023/11/14 01:22:47;;;;;;;26.85;17.08;;;;;;;;;;6305940;28;20073;-84
2023/11/14 01:25:49;;;;;;;23.33;16.15;;;;;;;;;;6306342;28;20112;-83
2023/11/14 01:28:51;;;;;;;23.77;16.10;;;;;;;;;;6308287;28;20045;-84
2023/11/14 01:31:54;;;;;;;24.17;15.82;;;;;;;;;;6308059;28;20112;-83
2023/11/14 01:34:56;;;;;;;24.27;16.85;;;;;;;;;;6308550;28;20052;-84
2023/11/14 01:38:07;;;;;;;24.48;15.85;;;;;;;;;;6306974;28;20044;-84
2023/11/14 01:41:09;;;;;;;25.25;16.70;;;;;;;;;;6306829;28;20222;-83
2023/11/14 01:44:14;;;;;;;23.55;16.05;;;;;;;;;;6310555;28;20108;-84
2023/11/14 01:47:16;;;;;;;24.42;17.35;;;;;;;;;;6310515;28;20049;-84
2023/11/14 01:50:19;;;;;;;23.73;16.58;;;;;;;;;;6307028;28;20041;-84
2023/11/14 01:53:22;;;;;;;23.15;16.33;;;;;;;;;;6292159;28;20048;-84
2023/11/14 01:56:28;;;;;;;21.52;16.08;;;;;;;;;;6312091;28;20109;-84
2023/11/14 01:59:30;;;;;;;25.13;16.67;;;;;;;;;;6307417;28;20044;-85
2023/11/14 02:02:31;;;;;;;22.67;16.55;;;;;;;;;;6297566;28;20058;-84
2023/11/14 02:05:33;;;;;;;23.25;17.05;;;;;;;;;;6302959;28;20065;-84
2023/11/14 02:08:38;;;;;;;25.25;16.52;;;;;;;;;;6304122;28;20052;-84
2023/11/14 02:11:39;;;;;;;;;;;;;;;;;;6304169;28;20076;-85
2023/11/14 02:14:42;;;;;;;25.75;17.38;;;;;;;;;;6309259;28;19967;-84
2023/11/14 02:17:46;;;;;;;22.85;16.38;;;;;;;;;;6306459;28;20045;-84
2023/11/14 02:20:51;;;;;;;26.70;16.98;;;;;;;;;;6304947;28;20103;-84
2023/11/14 02:23:58;;;;;;;25.95;16.48;;;;;;;;;;6301961;28;20059;-84
2023/11/14 02:27:14;;;;;;;29.05;18.48;;;;;;;;;;6304035;28;20056;-83
2023/11/14 02:30:16;;;;;;;26.55;17.30;;;;;;;;;;6308153;28;20108;-83
2023/11/14 02:33:21;;;;;;;24.15;16.35;;;;;;;;;;6303078;28;20060;-84
2023/11/14 02:36:24;;;;;;;25.10;17.95;;;;;;;;;;6307645;28;20055;-84
2023/11/14 02:39:28;;;;;;;27.38;18.77;;;;;;;;;;6307200;28;20055;-84
2023/11/14 02:42:31;;;;;;;25.40;17.55;;;;;;;;;;6305942;28;20104;-84
2023/11/14 02:45:33;;;;;;;26.42;18.00;;;;;;;;;;6305185;28;20109;-84
2023/11/14 02:48:35;;;;;;;27.45;18.88;;;;;;;;;;6306061;28;20159;-84
2023/11/14 02:51:46;;;;;;;27.42;18.88;;;;;;;;;;6305950;28;20041;-84
2023/11/14 02:54:54;;;;;;;25.10;17.48;;;;;;;;;;6302192;28;20048;-84
2023/11/14 02:57:57;;;;;;;27.83;18.25;;;;;;;;;;6275305;28;20045;-84
2023/11/14 03:00:59;;;;;;;25.63;18.67;;;;;;;;;;6310148;28;20326;-84
2023/11/14 03:04:04;;;;;;;26.05;17.75;;;;;;;;;;6306748;28;20057;-84
2023/11/14 03:07:06;;;;;;;30.23;18.80;;;;;;;;;;6300589;28;20053;-84
2023/11/14 03:10:09;;;;;;;25.77;18.77;;;;;;;;;;6307936;28;20071;-84
2023/11/14 03:13:12;;;;;;;27.67;19.33;;;;;;;;;;6306349;28;20040;-84
2023/11/14 03:16:14;;;;;;;25.45;17.70;;;;;;;;;;6301337;28;20044;-84
2023/11/14 03:19:16;;;;;;;28.38;17.75;;;;;;;;;;6303194;28;20076;-82
2023/11/14 03:22:18;;;;;;;28.55;18.35;;;;;;;;;;6303185;28;20252;-84
2023/11/14 03:25:22;;;;;;;29.42;18.70;;;;;;;;;;6303973;28;20060;-84
2023/11/14 03:28:25;;;;;;;28.42;18.70;;;;;;;;;;6304813;28;20092;-84
2023/11/14 03:31:31;;;;;;;28.13;18.38;;;;;;;;;;6309333;28;20049;-84
2023/11/14 03:34:33;;;;;;;29.48;19.10;;;;;;;;;;6313246;28;20092;-84
2023/11/14 03:37:36;;;;;;;25.70;18.08;;;;;;;;;;6309534;28;20078;-83
2023/11/14 03:40:38;;;;;;;25.38;18.30;;;;;;;;;;6316024;28;20052;-83
2023/11/14 03:43:42;;;;;;;27.60;18.15;;;;;;;;;;6311569;28;20108;-85
2023/11/14 03:46:44;;;;;;;28.55;18.33;;;;;;;;;;6307354;28;20040;-84
2023/11/14 03:49:46;;;;;;;31.10;18.65;;;;;;;;;;6307881;28;20049;-83
2023/11/14 03:52:48;;;;;;;26.40;17.52;;;;;;;;;;6307949;28;20099;-84
2023/11/14 03:55:50;;;;;;;25.08;16.88;;;;;;;;;;6307633;28;20060;-84
2023/11/14 03:58:56;;;;;;;27.17;17.00;;;;;;;;;;6311309;28;20036;-84
2023/11/14 04:01:58;;;;;;;27.55;17.38;;;;;;;;;;6308086;28;20112;-84
2023/11/14 04:05:02;;;;;;;25.48;17.48;;;;;;;;;;6296126;28;20433;-84
2023/11/14 04:08:05;;;;;;;27.38;17.80;;;;;;;;;;6316007;28;20534;-84
2023/11/14 04:11:07;;;;;;;29.97;19.10;;;;;;;;;;6309655;28;20083;-84
2023/11/14 04:14:11;;;;;;;28.38;18.52;;;;;;;;;;6311480;28;20108;-84
2023/11/14 04:17:13;;;;;;;26.63;17.98;;;;;;;;;;6312794;28;20074;-84
2023/11/14 04:20:18;;;;;;;25.77;18.02;;;;;;;;;;6308577;28;20057;-84
2023/11/14 04:23:20;;;;;;;26.85;18.33;;;;;;;;;;6308350;28;20053;-84
2023/11/14 04:26:23;;;;;;;28.73;19.05;;;;;;;;;;6310790;28;20428;-85
2023/11/14 04:29:29;;;;;;;30.95;19.30;;;;;;;;;;6306290;28;20057;-84
2023/11/14 04:32:33;;;;;;;25.40;17.55;;;;;;;;;;6305017;28;20049;-84
2023/11/14 04:35:35;;;;;;;28.95;18.02;;;;;;;;;;6308860;28;20088;-84
2023/11/14 04:38:37;;;;;;;28.27;18.27;;;;;;;;;;6306205;28;20053;-84
2023/11/14 04:41:41;;;;;;;24.98;17.13;;;;;;;;;;6307533;28;20109;-84
2023/11/14 04:44:44;;;;;;;;;;;;;;;;;;6307573;28;20043;-84
2023/11/14 04:47:46;;;;;;;24.23;17.15;;;;;;;;;;6308870;28;19924;-83
2023/11/14 04:50:48;;;;;;;28.42;17.50;;;;;;;;;;6291006;28;20041;-83
2023/11/14 04:53:51;;;;;;;29.88;18.38;;;;;;;;;;6304825;28;20049;-84
2023/11/14 04:56:54;;;;;;;25.20;18.45;;;;;;;;;;6306790;28;20041;-84
2023/11/14 04:59:57;;;;;;;26.08;17.65;;;;;;;;;;6306620;28;20079;-84
2023/11/14 05:03:04;;;;;;;28.48;18.20;;;;;;;;;;6306887;28;20049;-84
2023/11/14 05:06:09;;;;;;;26.35;17.90;;;;;;;;;;6305622;28;20051;-84
2023/11/14 05:09:13;;;;;;;28.75;18.17;;;;;;;;;;6305762;28;20065;-85
2023/11/14 05:12:15;;;;;;;26.27;18.33;;;;;;;;;;6306699;28;20045;-84
2023/11/14 05:15:21;;;;;;;30.80;18.05;;;;;;;;;;6303174;28;20275;-84
2023/11/14 05:18:23;;;;;;;28.60;18.67;;;;;;;;;;6305097;28;20040;-83
2023/11/14 05:21:25;;;;;;;27.35;18.50;;;;;;;;;;6302272;28;20102;-83
2023/11/14 05:24:30;;;;;;;27.33;18.63;;;;;;;;;;6302016;28;20056;-84
2023/11/14 05:27:37;;;;;;;30.05;18.60;;;;;;;;;;6304249;28;20063;-84
2023/11/14 05:30:40;;;;;;;28.67;18.52;;;;;;;;;;6309571;28;20044;-84
2023/11/14 05:33:42;;;;;;;32.20;18.77;;;;;;;;;;6305820;28;20044;-84
2023/11/14 05:36:44;;;;;;;30.05;19.67;;;;;;;;;;6310157;28;20097;-84
2023/11/14 05:39:46;;;;;;;28.52;19.60;;;;;;;;;;6305573;28;20051;-84
2023/11/14 05:42:48;;;;;;;30.02;19.42;;;;;;;;;;6310027;28;20048;-84
2023/11/14 05:45:53;;;;;;;32.90;19.02;;;;;;;;;;6302953;28;20051;-84
2023/11/14 05:48:54;;;;;;;;;;;;;;;;;;6304821;28;20060;-83
2023/11/14 05:52:02;;;;;;;29.40;19.23;;;;;;;;;;6304545;28;19920;-85
2023/11/14 05:55:04;;;;;;;28.20;19.33;;;;;;;;;;6298121;28;20088;-84
2023/11/14 05:58:07;;;;;;;31.15;19.33;;;;;;;;;;6304999;28;20075;-84
2023/11/14 06:01:11;;;;;;;31.33;19.15;;;;;;;;;;6306677;28;20112;-84
2023/11/14 06:04:13;;;;;;;;;;;;;;;;;;6307991;28;20082;-84
2023/11/14 06:07:17;;;;;;;29.00;19.27;;;;;;;;;;6311777;28;19920;-84
2023/11/14 06:10:19;;;;;;;31.02;19.02;;;;;;;;;;6311544;28;20041;-84
2023/11/14 06:13:22;;;;;;;32.55;19.63;;;;;;;;;;6310484;28;20062;-84
2023/11/14 06:16:25;;;;;;;30.17;19.02;;;;;;;;;;6283385;28;20049;-84
2023/11/14 06:19:28;;;;;;;34.58;20.38;;;;;;;;;;6290789;28;20040;-83
2023/11/14 06:22:29;;;;;;;30.75;19.33;;;;;;;;;;6313940;28;20255;-85
2023/11/14 06:25:31;;;;;;;26.05;18.35;;;;;;;;;;6304423;28;20060;-84
2023/11/14 06:28:33;;;;;;;29.05;18.98;;;;;;;;;;6304585;28;20104;-84
2023/11/14 06:31:37;;;;;;;27.20;18.70;;;;;;;;;;6308442;28;20053;-84
2023/11/14 06:34:39;;;;;;;29.97;19.80;;;;;;;;;;6309480;28;20048;-83
2023/11/14 06:37:42;;;;;;;31.77;19.55;;;;;;;;;;6300493;28;20056;-84
2023/11/14 06:40:45;;;;;;;29.98;19.00;;;;;;;;;;6308339;28;20039;-84
2023/11/14 06:43:47;;;;;;;33.65;20.25;;;;;;;;;;6306848;28;20045;-84
2023/11/14 06:46:50;;;;;;;26.20;17.67;;;;;;;;;;6387589;22;20051;-96
2023/11/14 06:50:22;;;;;;;27.55;18.35;;;;;;;;;;6249968;28;20045;-96
2023/11/14 07:33:11;;;;;;;28.48;18.38;;;;;;;;;;6007489;29;20049;-96
2023/11/14 07:36:18;;;;;;;24.97;16.83;;;;;;;;;;6055461;29;20067;-96
2023/11/14 07:39:23;;;;;;;31.55;16.45;;;;;;;;;;6110525;29;20066;-96
2023/11/14 07:42:37;;;;;;;23.65;15.70;;;;;;;;;;6079511;29;20061;-96
2023/11/14 07:55:32;;;;;;;23.05;13.45;;;;;;;;;;6150468;28;20069;-96
2023/11/14 07:58:36;;;;;;;23.17;13.95;;;;;;;;;;6178908;28;20061;-96
2023/11/14 08:04:54;;;;;;;23.00;13.93;;;;;;;;;;6153856;28;20126;-96
2023/11/14 08:11:38;;;;;;;23.45;14.05;;;;;;;;;;6149240;28;20405;-95
2023/11/14 08:21:29;;;;;;;25.30;13.57;;;;;;;;;;6137275;28;20138;-96
2023/11/14 08:32:10;;;;;;;23.95;14.63;;;;;;;;;;6068861;28;20503;-96
2023/11/14 08:38:56;;;;;;;19.77;13.20;;;;;;;;;;6136894;28;20085;-96
2023/11/14 08:42:00;;;;;;;;;;;;;;;;;;6151780;28;20059;-96
2023/11/14 08:51:44;;;;;;;23.30;12.77;;;;;;;;;;6137943;28;20108;-96
2023/11/14 08:54:48;;;;;;;22.67;13.05;;;;;;;;;;6160512;28;20051;-96
2023/11/14 08:57:50;;;;;;;22.30;14.50;;;;;;;;;;6151286;28;20050;-96
2023/11/14 09:04:14;;;;;;;17.63;12.52;;;;;;;;;;6230933;28;20057;-96
2023/11/14 09:14:12;;;;;;;18.67;12.38;;;;;;;;;;6204133;28;20033;-96
2023/11/14 09:28:07;;;;;;;24.33;12.55;;;;;;;;;;6041992;28;20062;-96
2023/11/14 09:38:32;;;;;;;19.05;12.32;;;;;;;;;;6145849;28;20098;-96
2023/11/14 09:41:34;;;;;;;76.57;38.22;;;;;;;;;;6134060;28;20088;-93
2023/11/14 09:44:36;;;;;;;187.90;85.72;;;;;;;;;;6128396;28;20078;-93
2023/11/14 09:47:40;;;;;;;44.75;24.83;;;;;;;;;;6155953;28;20059;-96
2023/11/14 09:54:10;;;;;;;25.08;12.55;;;;;;;;;;6193405;28;20052;-96
2023/11/14 09:57:23;;;;;;;18.92;12.10;;;;;;;;;;6176720;28;20132;-96
2023/11/14 10:00:47;;;;;;;19.08;12.98;;;;;;;;;;6242106;28;20049;-96
2023/11/14 10:03:52;;;;;;;20.02;13.40;;;;;;;;;;6245848;28;20056;-96
2023/11/14 10:10:38;;;;;;;19.20;12.73;;;;;;;;;;6248289;28;20040;-96
2023/11/14 10:13:42;;;;;;;20.63;13.07;;;;;;;;;;6208909;28;20037;-96
2023/11/14 10:16:57;;;;;;;22.60;13.48;;;;;;;;;;6248308;28;20050;-96
2023/11/14 10:20:07;;;;;;;20.65;12.23;;;;;;;;;;6228417;28;20053;-96
2023/11/14 10:33:59;;;;;;;24.45;14.82;;;;;;;;;;6144554;28;20047;-95
2023/11/14 10:44:24;;;;;;;25.65;15.73;;;;;;;;;;6020129;29;20479;-96
2023/11/14 10:50:59;;;;;;;28.60;16.88;;;;;;;;;;6047267;29;20056;-96
2023/11/14 10:54:05;;;;;;;25.80;16.42;;;;;;;;;;6058519;29;20037;-96
2023/11/14 11:00:52;;;;;;;25.38;16.90;;;;;;;;;;6092372;29;20125;-96
2023/11/14 11:04:21;;;;;;;27.13;17.08;;;;;;;;;;6096133;29;20113;-96
2023/11/14 11:11:03;;;;;;;24.73;17.05;;;;;;;;;;6133780;28;20047;-96
2023/11/14 11:21:28;;;;;;;27.03;17.13;;;;;;;;;;6245769;28;20065;-95
2023/11/14 11:24:31;;;;;;;32.93;21.23;;;;;;;;;;6293619;28;20051;-96
2023/11/14 11:27:42;;;;;;;54.42;29.33;;;;;;;;;;6273965;28;20355;-96
2023/11/14 11:31:14;;;;;;;68.85;35.88;;;;;;;;;;6270110;28;20117;-94
2023/11/14 11:34:28;;;;;;;31.17;20.20;;;;;;;;;;6266566;28;20044;-96
2023/11/14 11:37:54;;;;;;;62.80;32.92;;;;;;;;;;6272341;28;20094;-96
2023/11/14 11:41:18;;;;;;;50.28;26.90;;;;;;;;;;6289219;28;20045;-96
2023/11/14 11:44:41;;;;;;;27.73;18.98;;;;;;;;;;6259917;28;20543;-96
2023/11/14 11:55:42;;;;;;;29.30;18.30;;;;;;;;;;7103528;22;20028;-96
2023/11/14 12:13:51;;;;;;;28.95;16.63;;;;;;;;;;6215343;28;20042;-96
2023/11/14 12:16:58;;;;;;;31.38;17.83;;;;;;;;;;6225195;28;20048;-96
2023/11/14 12:23:38;;;;;;;29.63;18.33;;;;;;;;;;6301909;28;20036;-96
2023/11/14 12:30:20;;;;;;;28.15;18.98;;;;;;;;;;6236366;28;20651;-97
2023/11/14 12:36:48;;;;;;;28.15;18.80;;;;;;;;;;6256351;28;20145;-96
2023/11/14 12:46:56;;;;;;;72.22;40.13;;;;;;;;;;6242593;28;20139;-95
2023/11/14 12:49:58;;;;;;;75.70;40.67;;;;;;;;;;6225327;28;20994;-93
2023/11/14 12:56:31;;;;;;;31.30;19.60;;;;;;;;;;6235903;28;20598;-96
2023/11/14 13:02:55;;;;;;;33.28;20.27;;;;;;;;;;6254187;28;20084;-94
2023/11/14 13:06:05;;;;;;;37.58;20.02;;;;;;;;;;6228656;28;20038;-96
2023/11/14 13:09:21;;;;;;;52.35;23.77;;;;;;;;;;6230752;28;20061;-96
2023/11/14 13:15:52;;;;;;;33.70;19.45;;;;;;;;;;6246169;28;20111;-96
2023/11/14 13:22:19;;;;;;;29.48;19.88;;;;;;;;;;6233756;28;21025;-96
2023/11/14 13:25:44;;;;;;;34.45;20.33;;;;;;;;;;6209867;28;20514;-96
2023/11/14 13:32:28;;;;;;;29.85;21.17;;;;;;;;;;6272544;28;20170;-96
2023/11/14 13:39:01;;;;;;;37.15;22.55;;;;;;;;;;6263717;28;20116;-97
2023/11/14 13:42:07;;;;;;;32.80;21.98;;;;;;;;;;6297320;28;20048;-97
2023/11/14 13:49:32;;;;;;;36.47;22.95;;;;;;;;;;6283923;28;20060;-96
2023/11/14 13:52:42;;;;;;;36.00;22.85;;;;;;;;;;6277329;28;20059;-96
2023/11/14 13:59:06;;;;;;;41.95;22.52;;;;;;;;;;6263763;28;20052;-96
2023/11/14 14:27:10;;;;;;;37.10;23.10;;;;;;;;;;6097003;29;20052;-96
2023/11/14 14:36:38;;;;;;;44.50;25.63;;;;;;;;;;6467556;22;20044;-96
2023/11/14 14:50:12;;;;;;;39.35;27.48;;;;;;;;;;6324023;28;20036;-96
2023/11/14 14:53:46;;;;;;;41.20;27.98;;;;;;;;;;6336043;28;20493;-96
2023/11/14 15:04:00;;;;;;;45.05;28.20;;;;;;;;;;6281436;28;20056;-96
2023/11/14 15:10:35;;;;;;;41.08;27.63;;;;;;;;;;6258012;28;20040;-96
2023/11/14 15:13:38;;;;;;;42.65;28.40;;;;;;;;;;6298761;28;20045;-96
2023/11/14 15:20:22;;;;;;;41.05;28.73;;;;;;;;;;6295688;28;20103;-94
2023/11/14 15:23:25;;;;;;;78.82;44.85;;;;;;;;;;6294893;28;20079;-95
2023/11/14 15:26:28;;;;;;;91.68;50.90;;;;;;;;;;6273063;28;20040;-95
2023/11/14 15:29:30;;;;;;;132.93;69.57;;;;;;;;;;6296592;28;20048;-96
2023/11/14 15:32:41;;;;;;;56.58;36.47;;;;;;;;;;6293146;28;20045;-96
2023/11/14 15:35:51;;;;;;;53.30;33.72;;;;;;;;;;6306721;28;20025;-94
2023/11/14 15:38:53;;;;;;;53.00;30.60;;;;;;;;;;6350912;22;20049;-84
2023/11/14 15:41:56;;;;;;;49.60;33.50;;;;;;;;;;6252223;28;20365;-81
2023/11/14 15:44:59;;;;;;;49.20;33.20;;;;;;;;;;6250400;28;20046;-83
2023/11/14 15:48:03;;;;;;;54.03;35.35;;;;;;;;;;6250333;28;20108;-84
2023/11/14 15:51:05;;;;;;;51.08;33.60;;;;;;;;;;6247067;28;20080;-81
2023/11/14 15:54:08;;;;;;;53.40;34.58;;;;;;;;;;6253387;28;20052;-82
2023/11/14 15:57:22;;;;;;;51.20;34.45;;;;;;;;;;6254080;28;20064;-83
2023/11/14 16:00:24;;;;;;;51.67;34.28;;;;;;;;;;6212261;28;20038;-83
2023/11/14 16:03:34;;;;;;;50.83;33.72;;;;;;;;;;6223113;28;20050;-82
2023/11/14 16:06:35;;;;;;;57.30;34.95;;;;;;;;;;6224809;28;20325;-83
2023/11/14 16:09:39;;;;;;;57.30;36.70;;;;;;;;;;6222108;28;20042;-82
2023/11/14 16:12:41;;;;;;;54.20;35.90;;;;;;;;;;6223019;28;20069;-83
2023/11/14 16:15:42;;;;;;;55.92;34.30;;;;;;;;;;6223773;28;20062;-82
2023/11/14 16:18:46;;;;;;;52.08;34.58;;;;;;;;;;6219084;28;20061;-82
2023/11/14 16:21:47;;;;;;;55.85;36.65;;;;;;;;;;6222314;28;20058;-82
2023/11/14 16:24:49;;;;;;;54.05;36.17;;;;;;;;;;6228875;28;20054;-82
2023/11/14 16:27:57;;;;;;;50.08;34.88;;;;;;;;;;6222678;28;20062;-83
2023/11/14 16:31:00;;;;;;;51.75;35.35;;;;;;;;;;6221527;28;20049;-82
2023/11/14 16:34:03;;;;;;;50.17;35.47;;;;;;;;;;6222831;28;20054;-82
2023/11/14 16:37:05;;;;;;;56.30;35.88;;;;;;;;;;6228854;28;20074;-83
2023/11/14 16:40:08;;;;;;;54.58;34.25;;;;;;;;;;6258449;28;20064;-84
2023/11/14 16:43:10;;;;;;;55.65;35.72;;;;;;;;;;6281040;28;20059;-84
2023/11/14 16:46:12;;;;;;;50.47;33.55;;;;;;;;;;6280123;28;20051;-84
2023/11/14 16:49:15;;;;;;;51.05;34.03;;;;;;;;;;6273355;28;20050;-84
2023/11/14 16:52:17;;;;;;;46.90;33.30;;;;;;;;;;6269365;28;20112;-84
2023/11/14 16:55:19;;;;;;;49.67;34.30;;;;;;;;;;6269573;28;20056;-84
2023/11/14 16:58:21;;;;;;;48.10;33.55;;;;;;;;;;6278524;28;20049;-83
2023/11/14 17:01:25;;;;;;;55.20;34.38;;;;;;;;;;6269356;28;20052;-83
2023/11/14 17:04:33;;;;;;;55.22;33.97;;;;;;;;;;6271091;28;20109;-84
2023/11/14 17:07:35;;;;;;;50.63;35.10;;;;;;;;;;6284456;28;20053;-82
2023/11/14 17:10:42;;;;;;;49.58;33.47;;;;;;;;;;6465064;22;20079;-96
2023/11/14 17:25:43;;;;;;;52.67;35.38;;;;;;;;;;6245896;28;20045;-96
2023/11/14 17:29:04;;;;;;;52.90;33.67;;;;;;;;;;6208877;28;20262;-96
2023/11/14 17:32:12;;;;;;;53.53;34.15;;;;;;;;;;6242418;28;20064;-96
2023/11/14 17:59:41;;;;;;;54.42;35.58;;;;;;;;;;6130623;29;20138;-95
2023/11/14 18:02:46;;;;;;;51.60;33.70;;;;;;;;;;6122986;29;20128;-96
2023/11/14 18:05:56;;;;;;;53.88;35.13;;;;;;;;;;6094146;29;20043;-96
2023/11/14 18:10:22;;;;;;;52.17;34.45;;;;;;;;;;6125193;29;20182;-96
2023/11/14 18:24:19;;;;;;;58.13;37.55;;;;;;;;;;6034754;29;20056;-97
2023/11/14 18:38:47;;;;;;;53.83;34.53;;;;;;;;;;6059285;29;20057;-97
2023/11/14 18:56:46;;;;;;;53.40;35.20;;;;;;;;;;6632234;22;20245;-84
2023/11/14 18:59:48;;;;;;;54.72;35.05;;;;;;;;;;6264282;28;20045;-83
2023/11/14 19:02:52;;;;;;;54.75;35.58;;;;;;;;;;6261530;28;20252;-83
2023/11/14 19:05:55;;;;;;;56.42;36.42;;;;;;;;;;6260478;28;20060;-83
2023/11/14 19:08:58;;;;;;;55.47;36.65;;;;;;;;;;6262978;28;20068;-83
2023/11/14 19:12:02;;;;;;;57.45;35.78;;;;;;;;;;6259400;28;20089;-84
2023/11/14 19:15:07;;;;;;;55.50;36.30;;;;;;;;;;6260032;28;20069;-83
2023/11/14 19:18:09;;;;;;;58.65;37.08;;;;;;;;;;6263563;28;20059;-84
2023/11/14 19:21:12;;;;;;;56.22;36.97;;;;;;;;;;6268723;28;20045;-85
2023/11/14 19:24:17;;;;;;;56.60;36.22;;;;;;;;;;6262720;28;20436;-84
2023/11/14 19:27:18;;;;;;;59.30;37.13;;;;;;;;;;6266040;28;20515;-84
2023/11/14 19:30:20;;;;;;;55.42;37.15;;;;;;;;;;6259906;28;20231;-84
2023/11/14 19:33:22;;;;;;;51.13;35.83;;;;;;;;;;6263797;28;20049;-85
2023/11/14 19:36:30;;;;;;;55.03;36.78;;;;;;;;;;6270229;28;20041;-82
2023/11/14 19:39:32;;;;;;;55.72;35.92;;;;;;;;;;6270668;28;20071;-86
2023/11/14 19:42:34;;;;;;;53.38;34.10;;;;;;;;;;6279187;28;20089;-85
2023/11/14 19:45:36;;;;;;;52.60;33.90;;;;;;;;;;6267983;28;20050;-83
2023/11/14 19:48:38;;;;;;;52.45;33.92;;;;;;;;;;6266484;28;20089;-85
2023/11/14 19:51:41;;;;;;;50.80;34.10;;;;;;;;;;6263301;28;20097;-84
2023/11/14 19:54:44;;;;;;;52.38;32.88;;;;;;;;;;6273447;28;20076;-85
2023/11/14 19:57:46;;;;;;;46.00;31.20;;;;;;;;;;6288894;28;20057;-84
2023/11/14 20:00:48;;;;;;;51.50;34.30;;;;;;;;;;6291026;28;20059;-85
2023/11/14 20:03:50;;;;;;;46.97;32.13;;;;;;;;;;6287427;28;20045;-84
2023/11/14 20:06:54;;;;;;;48.63;32.38;;;;;;;;;;6294479;28;20104;-84
2023/11/14 20:09:56;;;;;;;47.17;31.15;;;;;;;;;;6285559;28;20104;-84
2023/11/14 20:12:58;;;;;;;47.03;31.05;;;;;;;;;;6292516;28;20104;-84
2023/11/14 20:16:00;;;;;;;44.70;30.45;;;;;;;;;;6288791;28;20044;-84
2023/11/14 20:19:02;;;;;;;55.42;32.30;;;;;;;;;;6293874;28;20067;-84
2023/11/14 20:22:08;;;;;;;53.25;33.17;;;;;;;;;;6292320;28;20060;-84
2023/11/14 20:25:10;;;;;;;51.65;32.20;;;;;;;;;;6297573;28;20053;-84
2023/11/14 20:28:12;;;;;;;48.50;32.25;;;;;;;;;;6297181;28;20041;-85
2023/11/14 20:31:16;;;;;;;52.65;33.30;;;;;;;;;;6295235;28;20048;-84
2023/11/14 20:34:19;;;;;;;52.45;32.38;;;;;;;;;;6289072;28;20064;-84
2023/11/14 20:37:22;;;;;;;47.58;31.60;;;;;;;;;;6298170;28;20094;-84
2023/11/14 20:40:24;;;;;;;45.80;32.03;;;;;;;;;;6290552;28;20060;-85
2023/11/14 20:43:26;;;;;;;53.13;32.78;;;;;;;;;;6295156;28;20052;-85
2023/11/14 20:46:28;;;;;;;47.95;32.00;;;;;;;;;;6285840;28;20040;-87
2023/11/14 20:49:31;;;;;;;45.80;31.00;;;;;;;;;;6298059;28;20050;-86
2023/11/14 20:52:36;;;;;;;54.78;30.88;;;;;;;;;;6294914;28;20041;-85
2023/11/14 20:55:38;;;;;;;48.05;31.52;;;;;;;;;;6302839;28;20122;-86
2023/11/14 20:58:40;;;;;;;47.30;30.40;;;;;;;;;;6289510;28;20038;-85
2023/11/14 21:01:42;;;;;;;47.65;31.58;;;;;;;;;;6297556;28;20063;-85
2023/11/14 21:04:44;;;;;;;43.92;29.50;;;;;;;;;;6292850;28;20067;-85
2023/11/14 21:07:48;;;;;;;42.58;27.42;;;;;;;;;;6299450;28;20030;-85
2023/11/14 21:10:50;;;;;;;47.97;27.65;;;;;;;;;;6293038;28;20092;-86
2023/11/14 21:13:52;;;;;;;45.42;29.35;;;;;;;;;;6296627;28;20063;-84
2023/11/14 21:16:55;;;;;;;45.67;29.83;;;;;;;;;;6293488;28;20040;-85
2023/11/14 21:19:57;;;;;;;47.47;30.92;;;;;;;;;;6293634;28;20048;-85
2023/11/14 21:23:01;;;;;;;49.35;31.77;;;;;;;;;;6387983;22;20044;-96
2023/11/14 21:26:03;;;;;;;51.88;33.75;;;;;;;;;;6303618;28;20123;-95
2023/11/14 21:29:06;;;;;;;52.38;35.05;;;;;;;;;;6317834;28;20077;-96
2023/11/14 21:32:08;;;;;;;52.22;35.95;;;;;;;;;;6320143;28;20067;-96
2023/11/14 21:35:11;;;;;;;57.00;37.80;;;;;;;;;;6290137;28;21296;-96
2023/11/14 21:38:15;;;;;;;54.85;36.15;;;;;;;;;;6300699;28;20070;-96
2023/11/14 21:41:19;;;;;;;54.83;35.90;;;;;;;;;;6305321;28;20052;-96
2023/11/14 21:47:43;;;;;;;52.95;35.72;;;;;;;;;;6299310;28;20036;-96
2023/11/14 21:50:52;;;;;;;56.53;35.53;;;;;;;;;;6269246;28;20055;-96
2023/11/14 21:53:58;;;;;;;52.38;36.17;;;;;;;;;;6317002;28;20043;-96
2023/11/14 21:57:01;;;;;;;56.08;36.35;;;;;;;;;;6326218;28;20063;-96
2023/11/14 22:00:05;;;;;;;55.03;35.30;;;;;;;;;;6267971;28;20080;-97
2023/11/14 22:07:24;;;;;;;48.78;31.15;;;;;;;;;;6183627;28;20102;-96
2023/11/14 22:39:36;;;;;;;49.78;31.67;;;;;;;;;;6087641;29;20093;-97
2023/11/14 22:57:18;;;;;;;48.97;30.23;;;;;;;;;;6165939;28;20043;-96
2023/11/14 23:15:18;;;;;;;47.10;27.45;;;;;;;;;;6110144;29;20031;-97
2023/11/14 23:18:20;;;;;;;62.40;34.15;;;;;;;;;;6180773;28;20042;-96
2023/11/14 23:21:22;;;;;;;66.80;36.17;;;;;;;;;;6220117;28;20155;-96
2023/11/14 23:24:24;;;;;;;60.42;33.80;;;;;;;;;;6205343;28;20048;-94
2023/11/14 23:27:27;;;;;;;242.25;114.35;;;;;;;;;;6204887;28;20201;-96
2023/11/14 23:30:29;;;;;;;109.57;56.47;;;;;;;;;;6218852;28;20045;-96
2023/11/14 23:33:32;;;;;;;80.38;39.63;;;;;;;;;;6222314;28;20054;-96
